createdAt,value
2019-03-28T00:01:43.871Z,70.02
2019-03-28T00:04:17.167Z,70.40
2019-03-28T00:06:49.265Z,70.94
2019-03-28T00:09:21.454Z,71.38
2019-03-28T00:11:53.507Z,72.17
2019-03-28T00:14:25.617Z,72.57
2019-03-28T00:16:58.054Z,72.77
2019-03-28T00:19:30.171Z,73.67
2019-03-28T00:22:05.535Z,74.68
2019-03-28T00:24:49.425Z,75.13
2019-03-28T00:27:21.863Z,75.35
2019-03-28T00:29:54.333Z,74.52
2019-03-28T00:32:26.543Z,74.53
2019-03-28T00:34:58.934Z,74.65
2019-03-28T00:37:31.253Z,74.66
2019-03-28T00:40:03.309Z,73.87
2019-03-28T00:42:35.763Z,73.87
2019-03-28T00:45:09.044Z,73.89
2019-03-28T00:47:41.172Z,73.72
2019-03-28T00:50:14.383Z,73.77
2019-03-28T00:52:47.021Z,73.99
2019-03-28T00:55:19.090Z,75.49
2019-03-28T00:57:51.121Z,74.60
2019-03-28T01:00:23.585Z,74.50
2019-03-28T01:02:55.741Z,74.95
2019-03-28T01:05:27.980Z,75.05
2019-03-28T01:08:00.069Z,74.94
2019-03-28T01:10:32.284Z,75.49
2019-03-28T01:13:04.449Z,75.47
2019-03-28T01:15:36.521Z,75.05
2019-03-28T01:18:08.722Z,74.59
2019-03-28T01:20:40.857Z,74.89
2019-03-28T01:23:13.920Z,75.54
2019-03-28T01:25:45.972Z,75.08
2019-03-28T01:28:17.946Z,75.29
2019-03-28T01:30:50.058Z,75.79
2019-03-28T01:33:22.250Z,76.13
2019-03-28T01:35:54.406Z,76.14
2019-03-28T01:38:26.803Z,76.29
2019-03-28T01:40:58.900Z,76.46
2019-03-28T01:43:30.923Z,76.44
2019-03-28T01:46:02.999Z,76.28
2019-03-28T01:48:35.050Z,76.08
2019-03-28T01:51:07.451Z,76.07
2019-03-28T01:53:39.536Z,76.03
2019-03-28T01:56:11.760Z,76.31
2019-03-28T01:58:44.079Z,76.37
2019-03-28T02:01:16.749Z,76.22
2019-03-28T02:03:48.902Z,77.27
2019-03-28T02:06:21.016Z,77.36
2019-03-28T02:08:53.030Z,77.50
2019-03-28T02:11:25.265Z,78.63
2019-03-28T02:13:57.469Z,79.10
2019-03-28T02:16:29.533Z,78.76
2019-03-28T02:19:01.823Z,78.84
2019-03-28T02:21:33.990Z,78.82
2019-03-28T02:24:06.455Z,79.04
2019-03-28T02:26:38.593Z,79.30
2019-03-28T02:29:10.616Z,78.87
2019-03-28T02:31:43.121Z,79.03
2019-03-28T02:34:16.219Z,79.61
2019-03-28T02:36:48.183Z,79.54
2019-03-28T02:39:20.606Z,79.75
2019-03-28T02:41:52.985Z,79.47
2019-03-28T02:44:25.155Z,79.62
2019-03-28T02:46:57.512Z,79.66
2019-03-28T02:49:29.569Z,79.13
2019-03-28T02:52:01.856Z,79.17
2019-03-28T02:54:34.400Z,78.52
2019-03-28T02:57:07.707Z,79.31
2019-03-28T02:59:40.223Z,79.45
2019-03-28T03:02:12.773Z,79.77
2019-03-28T03:04:44.818Z,79.27
2019-03-28T03:07:16.992Z,79.18
2019-03-28T03:09:49.146Z,79.28
2019-03-28T03:12:21.219Z,79.50
2019-03-28T03:14:53.252Z,79.95
2019-03-28T03:17:25.237Z,80.17
2019-03-28T03:19:57.211Z,80.24
2019-03-28T03:22:29.391Z,79.78
2019-03-28T03:25:01.909Z,79.30
2019-03-28T03:27:33.891Z,79.17
2019-03-28T03:30:06.963Z,79.64
2019-03-28T03:32:39.101Z,80.06
2019-03-28T03:35:11.739Z,80.33
2019-03-28T03:37:43.808Z,80.29
2019-03-28T03:40:16.528Z,80.12
2019-03-28T03:42:48.701Z,80.91
2019-03-28T03:45:20.830Z,81.25
2019-03-28T03:47:53.059Z,81.15
2019-03-28T03:50:32.537Z,81.41
2019-03-28T03:53:04.892Z,81.40
2019-03-28T03:55:37.243Z,81.51
2019-03-28T03:58:16.008Z,81.13
2019-03-28T04:00:43.296Z,81.78
2019-03-28T04:03:15.323Z,82.45
2019-03-28T04:05:47.800Z,82.60
2019-03-28T04:08:20.301Z,82.90
2019-03-28T04:10:52.503Z,82.37
2019-03-28T04:13:24.781Z,82.47
2019-03-28T04:15:57.338Z,82.24
2019-03-28T04:18:29.920Z,82.03
2019-03-28T04:21:02.079Z,82.08
2019-03-28T04:23:34.505Z,82.31
2019-03-28T04:26:07.063Z,82.19
2019-03-28T04:28:39.164Z,82.11
2019-03-28T04:31:11.664Z,82.13
2019-03-28T04:33:44.084Z,81.59
2019-03-28T04:36:16.346Z,80.77
2019-03-28T04:38:49.036Z,81.18
2019-03-28T04:41:21.631Z,80.85
2019-03-28T04:43:56.067Z,81.37
2019-03-28T04:46:29.091Z,81.45
2019-03-28T04:49:01.200Z,81.90
2019-03-28T04:51:33.564Z,82.16
2019-03-28T04:54:05.923Z,82.17
2019-03-28T04:56:38.333Z,82.52
2019-03-28T04:59:10.801Z,82.58
2019-03-28T05:01:43.021Z,82.32
2019-03-28T05:04:15.378Z,82.20
2019-03-28T05:06:47.659Z,82.33
2019-03-28T05:09:19.986Z,82.70
2019-03-28T05:11:52.226Z,82.84
2019-03-28T05:14:24.788Z,82.40
2019-03-28T05:16:57.019Z,82.05
2019-03-28T05:19:29.183Z,82.21
2019-03-28T05:22:01.363Z,82.13
2019-03-28T05:24:33.829Z,82.38
2019-03-28T05:27:06.303Z,82.23
2019-03-28T05:29:38.380Z,81.51
2019-03-28T05:32:10.526Z,81.82
2019-03-28T05:34:43.194Z,81.61
2019-03-28T05:37:15.419Z,81.69
2019-03-28T05:39:48.909Z,81.71
2019-03-28T05:42:21.100Z,82.50
2019-03-28T05:44:53.457Z,81.94
2019-03-28T05:47:25.742Z,81.25
2019-03-28T05:49:59.103Z,81.52
2019-03-28T05:52:31.308Z,81.68
2019-03-28T05:55:05.324Z,81.40
2019-03-28T05:57:37.376Z,80.49
2019-03-28T06:00:11.425Z,79.63
2019-03-28T06:02:44.711Z,79.64
2019-03-28T06:05:17.135Z,79.33
2019-03-28T06:07:49.326Z,78.46
2019-03-28T06:10:21.959Z,78.01
2019-03-28T06:12:54.043Z,77.52
2019-03-28T06:15:26.313Z,77.04
2019-03-28T06:17:58.480Z,76.79
2019-03-28T06:20:31.140Z,76.53
2019-03-28T06:23:03.319Z,75.80
2019-03-28T06:25:35.955Z,74.27
2019-03-28T06:28:08.556Z,73.84
2019-03-28T06:30:40.779Z,74.24
2019-03-28T06:33:13.026Z,73.46
2019-03-28T06:35:45.298Z,71.94
2019-03-28T06:38:17.733Z,71.80
2019-03-28T06:40:49.983Z,72.17
2019-03-28T06:43:22.457Z,70.63
2019-03-28T06:45:54.670Z,68.71
2019-03-28T06:48:26.757Z,67.53
2019-03-28T06:50:59.128Z,66.67
2019-03-28T06:53:32.575Z,68.17
2019-03-28T06:56:04.748Z,67.12
2019-03-28T06:58:36.908Z,68.12
2019-03-28T07:01:09.082Z,67.22
2019-03-28T07:03:41.346Z,68.86
2019-03-28T07:06:14.524Z,67.29
2019-03-28T07:08:46.923Z,67.32
2019-03-28T07:11:19.217Z,65.15
2019-03-28T07:13:51.473Z,66.84
2019-03-28T07:16:23.727Z,64.68
2019-03-28T07:18:55.962Z,66.11
2019-03-28T07:21:28.157Z,65.14
2019-03-28T07:24:00.697Z,65.83
2019-03-28T07:26:33.037Z,66.64
2019-03-28T07:29:05.260Z,68.35
2019-03-28T07:31:37.434Z,67.54
2019-03-28T07:34:09.660Z,67.98
2019-03-28T07:36:41.819Z,67.77
2019-03-28T07:39:14.492Z,67.53
2019-03-28T07:41:46.823Z,67.38
2019-03-28T07:44:19.009Z,67.83
2019-03-28T07:46:51.183Z,69.51
2019-03-28T07:49:23.693Z,63.22
2019-03-28T07:51:56.287Z,54.31
2019-03-28T07:54:28.602Z,53.16
2019-03-28T07:57:00.900Z,52.25
2019-03-28T07:59:33.148Z,53.07
2019-03-28T08:02:05.533Z,52.27
2019-03-28T08:04:38.034Z,52.13
2019-03-28T08:07:10.373Z,53.19
2019-03-28T08:09:42.732Z,49.66
2019-03-28T08:12:22.453Z,52.32
2019-03-28T08:14:49.505Z,51.26
2019-03-28T08:17:21.806Z,51.11
2019-03-28T08:19:54.061Z,50.17
2019-03-28T08:22:29.512Z,48.75
2019-03-28T08:25:00.501Z,48.61
2019-03-28T08:27:32.682Z,47.98
2019-03-28T08:30:17.584Z,47.16
2019-03-28T08:32:40.074Z,46.63
2019-03-28T08:35:13.007Z,45.71
2019-03-28T08:37:45.561Z,47.13
2019-03-28T08:40:40.173Z,45.70
2019-03-28T08:43:13.464Z,45.40
2019-03-28T08:45:45.966Z,44.81
2019-03-28T08:48:18.142Z,43.34
2019-03-28T08:50:50.303Z,43.00
2019-03-28T08:53:22.653Z,42.55
2019-03-28T08:55:55.119Z,42.46
2019-03-28T08:58:27.384Z,41.82
2019-03-28T09:00:59.648Z,40.57
2019-03-28T09:03:32.289Z,40.60
2019-03-28T09:06:04.519Z,41.43
2019-03-28T09:08:36.852Z,42.48
2019-03-28T09:11:09.124Z,42.20
2019-03-28T09:13:41.987Z,43.19
2019-03-28T09:16:14.309Z,40.64
2019-03-28T09:18:46.477Z,41.28
2019-03-28T09:21:18.569Z,41.52
2019-03-28T09:23:52.219Z,42.50
2019-03-28T09:26:24.389Z,43.53
2019-03-28T09:28:56.955Z,40.71
2019-03-28T09:31:29.291Z,38.66
2019-03-28T09:34:01.887Z,37.60
2019-03-28T09:36:34.195Z,38.30
2019-03-28T09:39:10.357Z,38.60
2019-03-28T09:41:42.629Z,39.34
2019-03-28T09:44:15.440Z,41.81
2019-03-28T09:46:48.240Z,40.11
2019-03-28T09:49:20.446Z,39.86
2019-03-28T09:51:52.718Z,41.47
2019-03-28T09:54:25.358Z,39.47
2019-03-28T09:56:57.614Z,41.10
2019-03-28T09:59:29.950Z,38.95
2019-03-28T10:02:02.729Z,40.50
2019-03-28T10:04:35.288Z,41.40
2019-03-28T10:07:07.832Z,42.69
2019-03-28T10:09:40.243Z,41.39
2019-03-28T10:12:12.494Z,42.19
2019-03-28T10:14:44.988Z,44.49
2019-03-28T10:17:17.357Z,41.34
2019-03-28T10:19:49.838Z,41.52
2019-03-28T10:22:22.577Z,41.00
2019-03-28T10:24:54.854Z,40.32
2019-03-28T10:27:27.036Z,39.01
2019-03-28T10:29:59.197Z,39.54
2019-03-28T10:32:32.491Z,39.72
2019-03-28T10:35:07.039Z,39.44
2019-03-28T10:37:39.834Z,41.68
2019-03-28T10:40:12.320Z,40.76
2019-03-28T10:42:45.287Z,42.21
2019-03-28T10:45:17.737Z,42.95
2019-03-28T10:47:49.964Z,43.48
2019-03-28T10:50:22.518Z,43.59
2019-03-28T10:52:54.749Z,43.62
2019-03-28T10:55:27.040Z,43.34
2019-03-28T10:57:59.259Z,41.96
2019-03-28T11:00:32.666Z,42.67
2019-03-28T11:03:06.279Z,42.16
2019-03-28T11:05:38.889Z,43.77
2019-03-28T11:08:11.173Z,44.56
2019-03-28T11:10:43.721Z,42.04
2019-03-28T11:13:16.004Z,42.69
2019-03-28T11:15:48.287Z,41.78
2019-03-28T11:18:20.563Z,41.57
2019-03-28T11:20:53.058Z,39.17
2019-03-28T11:23:25.258Z,38.74
2019-03-28T11:25:57.600Z,40.08
2019-03-28T11:28:29.930Z,42.43
2019-03-28T11:31:02.148Z,42.72
2019-03-28T11:33:34.600Z,43.42
2019-03-28T11:36:06.857Z,42.16
2019-03-28T11:38:39.265Z,43.96
2019-03-28T11:41:12.535Z,45.08
2019-03-28T11:43:45.527Z,45.66
2019-03-28T11:46:18.252Z,44.69
2019-03-28T11:48:50.873Z,45.91
2019-03-28T11:51:24.882Z,44.65
2019-03-28T11:53:57.102Z,46.42
2019-03-28T11:56:29.251Z,46.15
2019-03-28T11:59:04.322Z,46.91
2019-03-28T12:01:35.610Z,47.09
2019-03-28T12:04:07.905Z,47.55
2019-03-28T12:06:40.421Z,47.56
2019-03-28T12:09:13.055Z,47.56
2019-03-28T12:11:45.618Z,48.15
2019-03-28T12:14:17.894Z,49.02
2019-03-28T12:16:50.512Z,47.26
2019-03-28T12:19:22.890Z,48.94
2019-03-28T12:21:55.194Z,47.69
2019-03-28T12:24:27.465Z,47.54
2019-03-28T12:26:59.685Z,47.60
2019-03-28T12:29:35.353Z,48.19
2019-03-28T12:32:13.751Z,48.52
2019-03-28T12:34:39.888Z,47.25
2019-03-28T12:37:12.113Z,47.10
2019-03-28T12:39:44.359Z,48.69
2019-03-28T12:42:16.942Z,48.06
2019-03-28T12:44:56.845Z,46.71
2019-03-28T12:47:23.794Z,46.59
2019-03-28T12:49:56.382Z,46.74
2019-03-28T12:52:29.894Z,46.66
2019-03-28T12:55:02.744Z,45.80
2019-03-28T12:57:35.371Z,46.70
2019-03-28T13:00:09.312Z,46.62
2019-03-28T13:02:42.594Z,47.27
2019-03-28T13:05:15.182Z,47.95
2019-03-28T13:07:47.514Z,48.02
2019-03-28T13:10:20.143Z,48.71
2019-03-28T13:12:52.671Z,47.76
2019-03-28T13:15:25.245Z,47.61
2019-03-28T13:17:57.558Z,47.41
2019-03-28T13:20:30.149Z,48.13
2019-03-28T13:23:02.877Z,49.46
2019-03-28T13:25:35.432Z,49.77
2019-03-28T13:28:08.262Z,50.10
2019-03-28T13:30:40.589Z,49.44
2019-03-28T13:33:12.869Z,48.68
2019-03-28T13:35:45.139Z,48.63
2019-03-28T13:38:17.639Z,47.32
2019-03-28T13:40:52.061Z,47.03
2019-03-28T13:43:25.259Z,47.14
2019-03-28T13:45:59.759Z,47.03
2019-03-28T13:48:32.017Z,49.03
2019-03-28T13:51:04.775Z,48.70
2019-03-28T13:53:39.793Z,47.67
2019-03-28T13:56:14.069Z,47.57
2019-03-28T13:58:46.321Z,47.95
2019-03-28T14:01:18.679Z,48.76
2019-03-28T14:03:51.062Z,47.39
2019-03-28T14:06:23.292Z,46.77
2019-03-28T14:08:56.653Z,45.40
2019-03-28T14:11:29.083Z,46.73
2019-03-28T14:14:01.466Z,45.28
2019-03-28T14:16:33.985Z,47.05
2019-03-28T14:19:08.346Z,48.66
2019-03-28T14:21:40.354Z,50.52
2019-03-28T14:24:12.688Z,51.07
2019-03-28T14:26:45.075Z,51.61
2019-03-28T14:29:17.375Z,50.94
2019-03-28T14:31:49.586Z,51.17
2019-03-28T14:34:21.753Z,52.22
2019-03-28T14:36:55.130Z,52.66
2019-03-28T14:39:27.454Z,52.74
2019-03-28T14:41:59.756Z,53.84
2019-03-28T14:44:32.087Z,52.11
2019-03-28T14:47:04.712Z,52.44
2019-03-28T14:49:37.111Z,51.98
2019-03-28T14:52:09.324Z,52.85
2019-03-28T14:54:41.671Z,52.06
2019-03-28T14:57:15.452Z,53.00
2019-03-28T14:59:49.955Z,53.84
2019-03-28T15:02:22.468Z,54.48
2019-03-28T15:04:54.606Z,54.56
2019-03-28T15:07:26.814Z,53.78
2019-03-28T15:10:00.429Z,53.78
2019-03-28T15:12:32.777Z,54.56
2019-03-28T15:15:05.943Z,55.00
2019-03-28T15:17:38.496Z,55.32
2019-03-28T15:20:10.938Z,55.63
2019-03-28T15:22:43.626Z,55.51
2019-03-28T15:25:15.913Z,54.69
2019-03-28T15:27:48.207Z,53.68
2019-03-28T15:30:20.847Z,54.07
2019-03-28T15:32:53.182Z,53.96
2019-03-28T15:35:25.469Z,55.41
2019-03-28T15:37:57.865Z,55.14
2019-03-28T15:40:30.246Z,55.79
2019-03-28T15:43:02.538Z,56.05
2019-03-28T15:45:34.836Z,55.61
2019-03-28T15:48:07.745Z,55.69
2019-03-28T15:50:40.033Z,56.00
2019-03-28T15:53:12.314Z,56.05
2019-03-28T15:55:44.621Z,56.36
2019-03-28T15:58:23.003Z,57.26
2019-03-28T16:00:50.903Z,57.59
2019-03-28T16:03:23.243Z,57.16
2019-03-28T16:05:58.617Z,57.18
2019-03-28T16:08:29.377Z,58.09
2019-03-28T16:11:02.306Z,58.82
2019-03-28T16:13:37.403Z,59.18
2019-03-28T16:16:08.584Z,59.61
2019-03-28T16:18:40.788Z,60.00
2019-03-28T16:21:13.095Z,60.71
2019-03-28T16:23:45.304Z,60.18
2019-03-28T16:26:17.677Z,60.57
2019-03-28T16:28:49.973Z,60.54
2019-03-28T16:31:22.371Z,60.54
2019-03-28T16:34:06.262Z,60.83
2019-03-28T16:36:29.018Z,60.49
2019-03-28T16:39:01.683Z,60.58
2019-03-28T16:41:36.045Z,60.68
2019-03-28T16:44:08.495Z,60.95
2019-03-28T16:46:40.961Z,60.92
2019-03-28T16:49:13.313Z,61.20
2019-03-28T16:51:45.711Z,61.37
2019-03-28T16:54:17.937Z,62.33
2019-03-28T16:56:50.151Z,61.97
2019-03-28T16:59:22.798Z,62.19
2019-03-28T17:01:55.386Z,62.64
2019-03-28T17:04:28.073Z,62.88
2019-03-28T17:07:02.589Z,63.79
2019-03-28T17:09:37.713Z,63.54
2019-03-28T17:12:10.847Z,64.18
2019-03-28T17:14:43.173Z,64.31
2019-03-28T17:17:15.994Z,64.38
2019-03-28T17:19:48.964Z,65.04
2019-03-28T17:22:22.940Z,64.83
2019-03-28T17:24:56.219Z,65.10
2019-03-28T17:27:28.541Z,65.21
2019-03-28T17:30:01.043Z,65.55
2019-03-28T17:32:36.574Z,65.80
2019-03-28T17:35:08.661Z,66.17
2019-03-28T17:37:40.979Z,66.67
2019-03-28T17:40:13.538Z,66.79
2019-03-28T17:42:47.854Z,67.17
2019-03-28T17:45:19.910Z,67.01
2019-03-28T17:47:52.297Z,67.05
2019-03-28T17:50:24.859Z,67.79
2019-03-28T17:52:57.153Z,67.92
2019-03-28T17:55:29.870Z,68.42
2019-03-28T17:58:02.348Z,68.65
2019-03-28T18:00:34.671Z,69.05
2019-03-28T18:03:09.504Z,68.90
2019-03-28T18:05:42.511Z,68.72
2019-03-28T18:08:14.889Z,69.54
2019-03-28T18:10:47.508Z,68.73
2019-03-28T18:13:19.806Z,69.12
2019-03-28T18:15:52.420Z,68.82
2019-03-28T18:18:25.449Z,68.99
2019-03-28T18:20:58.155Z,68.64
2019-03-28T18:23:30.289Z,69.07
2019-03-28T18:26:03.009Z,69.61
2019-03-28T18:28:35.784Z,70.13
2019-03-28T18:31:08.198Z,70.26
2019-03-28T18:33:40.803Z,70.54
2019-03-28T18:36:13.797Z,70.83
2019-03-28T18:38:46.091Z,70.84
2019-03-28T18:41:18.371Z,71.22
2019-03-28T18:43:50.927Z,71.39
2019-03-28T18:46:23.293Z,71.34
2019-03-28T18:48:55.573Z,71.33
2019-03-28T18:51:27.939Z,71.64
2019-03-28T18:54:01.228Z,71.44
2019-03-28T18:56:33.500Z,71.31
2019-03-28T18:59:06.154Z,71.50
2019-03-28T19:01:38.368Z,70.99
2019-03-28T19:04:11.139Z,70.90
2019-03-28T19:06:44.374Z,70.74
2019-03-28T19:09:16.722Z,71.15
2019-03-28T19:11:48.927Z,71.30
2019-03-28T19:14:21.451Z,71.31
2019-03-28T19:16:53.724Z,71.66
2019-03-28T19:19:38.596Z,71.88
2019-03-28T19:22:00.045Z,72.20
2019-03-28T19:24:32.672Z,71.87
2019-03-28T19:27:04.791Z,72.16
2019-03-28T19:29:37.091Z,72.34
2019-03-28T19:32:09.724Z,72.30
2019-03-28T19:34:42.348Z,72.58
2019-03-28T19:37:14.941Z,72.53
2019-03-28T19:39:47.076Z,72.46
2019-03-28T19:42:22.502Z,72.49
2019-03-28T19:44:54.487Z,72.57
2019-03-28T19:47:28.529Z,73.12
2019-03-28T19:50:00.760Z,72.83
2019-03-28T19:52:33.134Z,73.06
2019-03-28T19:55:06.302Z,72.88
2019-03-28T19:57:38.833Z,72.76
2019-03-28T20:00:12.425Z,73.44
2019-03-28T20:02:44.688Z,73.84
2019-03-28T20:05:16.965Z,73.96
2019-03-28T20:07:50.080Z,73.62
2019-03-28T20:10:22.502Z,73.75
2019-03-28T20:12:54.910Z,73.85
2019-03-28T20:15:27.381Z,73.99
2019-03-28T20:17:59.841Z,74.53
2019-03-28T20:20:32.096Z,74.56
2019-03-28T20:23:04.428Z,74.33
2019-03-28T20:25:36.710Z,74.50
2019-03-28T20:28:09.015Z,74.72
2019-03-28T20:30:41.433Z,74.86
2019-03-28T20:33:13.732Z,74.73
2019-03-28T20:35:45.941Z,74.75
2019-03-28T20:38:18.564Z,74.93
2019-03-28T20:40:51.053Z,74.60
2019-03-28T20:43:23.439Z,74.95
2019-03-28T20:45:56.246Z,75.55
2019-03-28T20:48:28.509Z,76.12
2019-03-28T20:51:03.455Z,76.20
2019-03-28T20:53:35.256Z,76.47
2019-03-28T20:56:07.533Z,76.85
2019-03-28T20:58:40.240Z,76.73
2019-03-28T21:01:12.600Z,77.36
2019-03-28T21:03:45.025Z,76.65
2019-03-28T21:06:19.515Z,76.67
2019-03-28T21:08:51.911Z,78.02
2019-03-28T21:11:24.400Z,76.47
2019-03-28T21:13:57.510Z,77.29
2019-03-28T21:16:29.731Z,77.85
2019-03-28T21:19:01.853Z,77.85
2019-03-28T21:21:34.152Z,78.05
2019-03-28T21:24:06.395Z,78.79
2019-03-28T21:26:38.746Z,76.47
2019-03-28T21:29:11.239Z,77.73
2019-03-28T21:31:49.718Z,79.22
2019-03-28T21:34:17.433Z,82.26
2019-03-28T21:36:49.855Z,81.79
2019-03-28T21:39:22.409Z,82.07
2019-03-28T21:41:55.006Z,81.91
2019-03-28T21:44:27.192Z,83.32
2019-03-28T21:46:59.450Z,84.13
2019-03-28T21:49:31.975Z,81.14
2019-03-28T21:52:07.382Z,82.28
2019-03-28T21:54:38.409Z,81.69
2019-03-28T21:57:10.943Z,82.04
2019-03-28T21:59:43.146Z,83.80
2019-03-28T22:02:15.481Z,83.53
2019-03-28T22:04:47.707Z,83.28
2019-03-28T22:07:19.965Z,83.77
2019-03-28T22:09:52.134Z,83.88
2019-03-28T22:12:24.405Z,84.55
2019-03-28T22:14:56.868Z,84.91
2019-03-28T22:17:29.544Z,84.31
2019-03-28T22:20:02.291Z,84.82
2019-03-28T22:22:34.928Z,84.57
2019-03-28T22:25:08.198Z,83.56
2019-03-28T22:27:40.434Z,83.38
2019-03-28T22:30:13.625Z,83.52
2019-03-28T22:32:45.807Z,83.89
2019-03-28T22:35:17.969Z,83.50
2019-03-28T22:37:50.850Z,83.90
2019-03-28T22:40:23.352Z,84.25
2019-03-28T22:42:55.457Z,84.42
2019-03-28T22:45:28.092Z,84.31
2019-03-28T22:48:10.797Z,84.26
2019-03-28T22:50:35.354Z,83.82
2019-03-28T22:53:07.579Z,84.30
2019-03-28T22:55:39.743Z,84.78
2019-03-28T22:58:12.343Z,84.26
2019-03-28T23:00:45.711Z,84.54
2019-03-28T23:03:20.776Z,84.48
2019-03-28T23:05:53.419Z,84.66
2019-03-28T23:08:26.221Z,84.17
2019-03-28T23:10:58.777Z,83.96
2019-03-28T23:13:31.240Z,83.55
2019-03-28T23:16:03.528Z,83.38
2019-03-28T23:18:36.469Z,83.48
2019-03-28T23:21:08.626Z,82.93
2019-03-28T23:23:40.896Z,82.74
2019-03-28T23:26:13.222Z,82.74
2019-03-28T23:28:45.470Z,82.28
2019-03-28T23:31:17.975Z,82.24
2019-03-28T23:33:50.399Z,82.06
2019-03-28T23:36:22.938Z,81.89
2019-03-28T23:38:55.425Z,81.54
2019-03-28T23:41:27.764Z,81.23
2019-03-28T23:44:01.887Z,80.96
2019-03-28T23:46:34.451Z,80.95
2019-03-28T23:49:06.742Z,80.78
2019-03-28T23:51:39.058Z,80.77
2019-03-28T23:54:11.624Z,80.50
2019-03-28T23:56:43.722Z,80.28
2019-03-28T23:59:15.909Z,80.25
